createdAt,value
2018-07-10T00:00:02.769Z,17.9
2018-07-10T00:15:03.083Z,17.9
2018-07-10T00:30:02.516Z,18.1
2018-07-10T00:45:02.869Z,18.4
2018-07-10T01:00:03.228Z,17.8
2018-07-10T01:15:02.537Z,17.8
2018-07-10T01:30:02.972Z,17.5
2018-07-10T01:45:02.313Z,17.4
2018-07-10T02:00:02.712Z,17.4
2018-07-10T02:15:03.025Z,17.9
2018-07-10T02:30:02.452Z,17.5
2018-07-10T02:45:02.815Z,17.6
2018-07-10T03:00:03.194Z,17.8
2018-07-10T03:15:02.524Z,17.4
2018-07-10T03:30:02.947Z,17.2
2018-07-10T03:45:02.282Z,17.2
2018-07-10T04:00:02.590Z,17.1
2018-07-10T04:15:02.897Z,17.5
2018-07-10T04:30:02.303Z,17.2
2018-07-10T04:45:02.572Z,17.4
2018-07-10T05:00:02.884Z,17.4
2018-07-10T05:15:03.226Z,17.8
2018-07-10T05:30:02.710Z,17.8
2018-07-10T05:45:03.004Z,18
2018-07-10T06:00:02.324Z,18
2018-07-10T06:15:02.680Z,17.8
2018-07-10T06:30:03.227Z,18.1
2018-07-10T06:45:02.541Z,18.2
2018-07-10T07:00:02.873Z,18.8
2018-07-10T07:15:03.247Z,18.8
2018-07-10T07:30:02.651Z,18.2
2018-07-10T07:45:02.983Z,17.9
2018-07-10T08:00:02.362Z,17.6
2018-07-10T08:15:02.686Z,17.1
2018-07-10T08:30:03.093Z,16.5
2018-07-10T08:45:02.389Z,17
2018-07-10T09:00:02.715Z,17.4
2018-07-10T09:15:02.994Z,17.6
2018-07-10T09:30:02.443Z,17.4
2018-07-10T09:45:02.763Z,17
2018-07-10T10:00:03.076Z,17.1
2018-07-10T10:15:02.469Z,17.6
2018-07-10T10:30:02.845Z,17.8
2018-07-10T10:45:03.203Z,17.9
2018-07-10T11:00:02.540Z,19.7
2018-07-10T11:15:02.884Z,20.7
2018-07-10T11:30:02.248Z,22.6
2018-07-10T11:45:02.600Z,23.9
2018-07-10T12:00:02.896Z,24.6
2018-07-10T12:15:03.233Z,24.6
2018-07-10T12:30:02.680Z,24.6
2018-07-10T12:45:02.989Z,23.9
2018-07-10T13:00:02.331Z,23.1
2018-07-10T13:15:02.674Z,25
2018-07-10T13:30:03.091Z,26
2018-07-10T13:45:02.453Z,24.2
2018-07-10T14:00:02.771Z,24.8
2018-07-10T14:15:03.092Z,25.1
2018-07-10T14:30:02.494Z,24.3
2018-07-10T14:45:02.842Z,24.4
2018-07-10T15:00:03.190Z,21.8
2018-07-10T15:15:02.663Z,20.8
2018-07-10T15:30:03.379Z,20.7
2018-07-10T15:45:02.776Z,19.8
2018-07-10T16:00:03.104Z,19.6
2018-07-10T16:15:02.430Z,19.1
2018-07-10T16:30:02.856Z,16.6
2018-07-10T16:45:03.187Z,17.5
2018-07-10T17:00:02.578Z,17.5
2018-07-10T17:15:02.956Z,17.5
2018-07-10T17:30:02.344Z,17.3
2018-07-10T17:45:02.670Z,17.3
2018-07-10T18:00:02.984Z,16.9
2018-07-10T18:15:02.406Z,17.1
2018-07-10T18:30:02.891Z,17.1
2018-07-10T18:45:03.230Z,16.9
2018-07-10T19:00:02.568Z,16.8
2018-07-10T19:15:02.897Z,16.6
2018-07-10T19:30:02.315Z,16.5
2018-07-10T19:45:02.602Z,16.3
2018-07-10T20:00:02.899Z,15.9
2018-07-10T20:15:03.233Z,16.2
2018-07-10T20:30:02.639Z,16.2
2018-07-10T20:45:02.988Z,16.2
2018-07-10T21:00:02.339Z,16.2
2018-07-10T21:15:02.852Z,16.1
2018-07-10T21:30:03.298Z,16.2
2018-07-10T21:45:02.635Z,16
2018-07-10T22:00:02.961Z,16.1
2018-07-10T22:15:02.265Z,15.8
2018-07-10T22:30:02.744Z,15.7
2018-07-10T22:45:03.093Z,15.8
2018-07-10T23:00:02.377Z,15.9
2018-07-10T23:15:02.660Z,15.7
2018-07-10T23:30:03.084Z,15.7
2018-07-10T23:45:02.376Z,15.7
